Towaoc, CO (81334)

3:49 AM MST on February 09, 2016 (GMT -0700)
Cortez Municipal | | Change Station
CLOSE
Current Station
Airport
Location: Cortez,
Elevation: 5915 ft
Nearby Weather Stations

Elev 5915 ft 37.31 °N, 108.63 °W | Updated 56 minutes ago

Clear
Clear
22 °F
Feels Like 12 °F
N
9
Wind Variable Wind from ENE

Today
High -- | Low -- °F
--% Chance of Precip.
Yesterday
High -- | Low -- °F
Precip. -- in
Pressure 30.42 in
Visibility 10.0 miles
Clouds Clear
Windchill 12 °F
Dew Point 17 °F
Humidity 82%
Rainfall 0.00 in
Snow Depth Not available.
7:10 AM 5:48 PM
New Moon, 1% visible
METAR KCEZ 090953Z AUTO 07008KT 10SM CLR M06/M08 A3043 RMK AO2 SLP300 T10561083
Pressure 30.42 in
Visibility 10.0 miles
Clouds Clear
Windchill 12 °F
Dew Point 17 °F
Humidity 82%
Rainfall 0.00 in
Snow Depth Not available.
7:10 AM 5:48 PM
New Moon, 1% visible
METAR KCEZ 090953Z AUTO 07008KT 10SM CLR M06/M08 A3043 RMK AO2 SLP300 T10561083

10-Day Weather Forecast

Almanac

Astronomy

Feb. 09, 2016 Rise Set
Actual Time
Civil Twilight
Nautical Twilight
Astronomical Twilight
Moon
Length of Visible Light
Length of Day
Tomorrow will be .
, % of the Moon is Illuminated

Today's Extremes

State Highs State Lows

Community

WunderPhotos

Upload Photos

1,891,565 photos uploaded!

WunderBlog® & News

Nearby

Air Quality

  Air Quality AQ Index Pollutant
Not available.

Snow Depth

Station Depth Elevation

Earthquake Activity

City Distance Mag. Time & Date
Minimum magnitude displayed is 2.5.

Coastal Water Temperatures

Place Temperature

Stations

Nearby Weather Stations

Station Location Temp. Windchill Dew Point Humidity Wind Precip. Elev Updated Type
                   

Watches & Warnings

There are currently no watches in effect.